createdAt,value
2018-07-28T00:00:25.381Z,24.40
2018-07-28T00:02:53.427Z,24.40
2018-07-28T00:05:21.467Z,24.40
2018-07-28T00:07:49.672Z,24.30
2018-07-28T00:10:17.712Z,24.20
2018-07-28T00:15:20.420Z,24.10
2018-07-28T00:17:48.456Z,24.10
2018-07-28T00:20:16.502Z,24.10
2018-07-28T00:22:44.577Z,24.00
2018-07-28T00:25:12.808Z,24.00
2018-07-28T00:27:41.303Z,23.90
2018-07-28T00:30:11.232Z,23.80
2018-07-28T00:32:39.316Z,23.80
2018-07-28T00:35:07.512Z,23.70
2018-07-28T00:37:35.804Z,23.60
2018-07-28T00:40:04.536Z,23.60
2018-07-28T00:42:32.575Z,23.50
2018-07-28T00:45:00.616Z,23.50
2018-07-28T00:47:28.651Z,23.40
2018-07-28T00:49:56.692Z,23.40
2018-07-28T00:52:24.748Z,23.30
2018-07-28T00:54:52.793Z,23.30
2018-07-28T00:57:20.836Z,23.20
2018-07-28T00:59:48.868Z,23.10
2018-07-28T01:02:16.909Z,23.00
2018-07-28T01:04:44.953Z,22.90
2018-07-28T01:07:13.008Z,22.90
2018-07-28T01:09:41.051Z,22.80
2018-07-28T01:12:09.096Z,22.50
2018-07-28T01:14:37.140Z,22.40
2018-07-28T01:19:33.103Z,22.30
2018-07-28T01:22:01.159Z,22.20
2018-07-28T01:24:29.210Z,22.10
2018-07-28T01:26:57.247Z,22.10
2018-07-28T01:29:25.299Z,22.00
2018-07-28T01:31:53.344Z,22.10
2018-07-28T01:34:21.392Z,22.10
2018-07-28T01:36:49.440Z,22.10
2018-07-28T01:39:17.493Z,22.10
2018-07-28T01:41:45.527Z,22.10
2018-07-28T01:44:13.572Z,22.10
2018-07-28T01:46:41.767Z,22.10
2018-07-28T01:49:09.824Z,22.10
2018-07-28T01:51:37.868Z,22.10
2018-07-28T01:54:05.922Z,22.10
2018-07-28T01:56:33.960Z,22.10
2018-07-28T02:01:30.065Z,22.00
2018-07-28T02:03:58.268Z,22.00
2018-07-28T02:06:26.336Z,22.00
2018-07-28T02:08:54.489Z,22.00
2018-07-28T02:11:22.540Z,21.90
2018-07-28T02:13:50.580Z,21.90
2018-07-28T02:16:18.631Z,21.90
2018-07-28T02:21:14.536Z,21.80
2018-07-28T02:23:42.608Z,21.80
2018-07-28T02:26:10.668Z,21.80
2018-07-28T02:28:38.756Z,21.80
2018-07-28T02:31:06.817Z,21.80
2018-07-28T02:33:34.885Z,21.70
2018-07-28T02:36:02.966Z,21.70
2018-07-28T02:38:31.045Z,21.70
2018-07-28T02:40:59.113Z,21.60
2018-07-28T02:43:27.189Z,21.50
2018-07-28T02:45:55.257Z,21.50
2018-07-28T02:48:23.333Z,21.50
2018-07-28T02:50:51.400Z,21.40
2018-07-28T02:53:19.484Z,21.40
2018-07-28T02:55:47.537Z,21.30
2018-07-28T02:58:15.616Z,21.30
2018-07-28T03:00:43.682Z,21.30
2018-07-28T03:03:11.748Z,21.30
2018-07-28T03:05:39.804Z,21.20
2018-07-28T03:08:08.300Z,21.20
2018-07-28T03:10:36.360Z,21.10
2018-07-28T03:13:04.460Z,21.00
2018-07-28T03:15:34.449Z,20.90
2018-07-28T03:18:03.581Z,20.90
2018-07-28T03:20:31.689Z,20.90
2018-07-28T03:23:00.457Z,20.90
2018-07-28T03:25:28.527Z,20.80
2018-07-28T03:27:56.929Z,20.80
2018-07-28T03:30:25.324Z,20.80
2018-07-28T03:32:53.807Z,20.70
2018-07-28T03:35:21.867Z,20.70
2018-07-28T03:37:50.620Z,20.70
2018-07-28T03:40:18.704Z,20.70
2018-07-28T03:42:46.770Z,20.70
2018-07-28T03:45:14.865Z,20.60
2018-07-28T03:47:42.927Z,20.60
2018-07-28T03:50:11.332Z,20.60
2018-07-28T03:52:39.416Z,20.60
2018-07-28T03:55:08.525Z,20.50
2018-07-28T03:57:36.596Z,20.50
2018-07-28T04:00:07.436Z,20.50
2018-07-28T04:02:35.492Z,20.50
2018-07-28T04:05:03.984Z,20.60
2018-07-28T04:07:32.044Z,20.50
2018-07-28T04:10:00.108Z,20.20
2018-07-28T04:12:28.184Z,20.00
2018-07-28T04:14:56.358Z,19.90
2018-07-28T04:17:24.412Z,19.90
2018-07-28T04:19:52.481Z,19.90
2018-07-28T04:22:20.532Z,20.00
2018-07-28T04:24:48.589Z,20.00
2018-07-28T04:27:16.632Z,20.10
2018-07-28T04:29:44.680Z,20.20
2018-07-28T04:32:12.720Z,20.30
2018-07-28T04:34:40.794Z,20.20
2018-07-28T04:37:08.879Z,20.30
2018-07-28T04:39:36.898Z,20.40
2018-07-28T04:42:04.956Z,20.50
2018-07-28T04:44:32.991Z,20.60
2018-07-28T04:47:01.040Z,20.60
2018-07-28T04:49:29.092Z,20.60
2018-07-28T04:51:57.128Z,20.60
2018-07-28T04:54:25.218Z,20.70
2018-07-28T04:56:53.231Z,20.70
2018-07-28T04:59:21.265Z,20.80
2018-07-28T05:01:49.308Z,20.90
2018-07-28T05:04:17.367Z,20.90
2018-07-28T05:06:45.418Z,21.10
2018-07-28T05:09:13.488Z,21.20
2018-07-28T05:11:41.532Z,21.20
2018-07-28T05:14:09.600Z,21.30
2018-07-28T05:16:37.639Z,21.40
2018-07-28T05:19:05.688Z,21.50
2018-07-28T05:21:33.728Z,21.60
2018-07-28T05:24:01.800Z,21.80
2018-07-28T05:26:29.864Z,21.90
2018-07-28T05:31:25.840Z,22.20
2018-07-28T05:33:53.908Z,22.40
2018-07-28T05:36:21.980Z,22.60
2018-07-28T05:38:50.037Z,22.80
2018-07-28T05:41:18.117Z,22.90
2018-07-28T05:43:46.343Z,23.00
2018-07-28T05:46:14.588Z,23.20
2018-07-28T05:48:42.981Z,23.40
2018-07-28T05:51:11.383Z,23.60
2018-07-28T05:53:39.965Z,23.80
2018-07-28T05:56:10.393Z,24.00
2018-07-28T05:58:38.696Z,24.20
2018-07-28T06:01:07.200Z,24.40
2018-07-28T06:03:35.264Z,24.70
2018-07-28T06:06:03.370Z,25.00
2018-07-28T06:08:31.444Z,25.30
2018-07-28T06:10:59.504Z,25.60
2018-07-28T06:13:27.558Z,25.90
2018-07-28T06:15:55.631Z,25.90
2018-07-28T06:18:23.692Z,25.90
2018-07-28T06:20:51.760Z,25.90
2018-07-28T06:23:19.856Z,26.10
2018-07-28T06:25:47.940Z,26.20
2018-07-28T06:28:16.129Z,26.60
2018-07-28T06:30:44.187Z,27.20
2018-07-28T06:33:12.256Z,27.90
2018-07-28T06:35:40.326Z,28.30
2018-07-28T06:38:08.398Z,28.30
2018-07-28T06:40:36.541Z,28.50
2018-07-28T06:43:04.613Z,28.80
2018-07-28T06:45:32.688Z,28.90
2018-07-28T06:48:00.753Z,28.60
2018-07-28T06:52:56.745Z,27.80
2018-07-28T06:55:24.817Z,27.40
2018-07-28T06:57:52.884Z,27.00
2018-07-28T07:00:20.961Z,26.90
2018-07-28T07:02:50.358Z,26.70
2018-07-28T07:05:18.415Z,26.50
2018-07-28T07:07:46.665Z,26.20
2018-07-28T07:10:14.735Z,26.10
2018-07-28T07:12:42.792Z,26.10
2018-07-28T07:15:10.868Z,26.00
2018-07-28T07:17:38.924Z,26.00
2018-07-28T07:20:07.344Z,26.10
2018-07-28T07:22:35.431Z,26.40
2018-07-28T07:25:04.733Z,26.70
2018-07-28T07:27:32.788Z,27.10
2018-07-28T07:30:00.871Z,27.80
2018-07-28T07:32:28.951Z,28.30
2018-07-28T07:34:57.021Z,28.60
2018-07-28T07:37:25.092Z,28.80
2018-07-28T07:39:53.160Z,29.20
2018-07-28T07:42:21.233Z,29.60
2018-07-28T07:44:49.308Z,29.80
2018-07-28T07:47:17.390Z,30.20
2018-07-28T07:49:45.444Z,30.50
2018-07-28T07:52:13.516Z,30.80
2018-07-28T07:54:41.585Z,31.00
2018-07-28T07:57:10.252Z,31.00
2018-07-28T07:59:38.431Z,30.80
2018-07-28T08:02:06.515Z,30.50
2018-07-28T08:04:34.579Z,30.20
2018-07-28T08:07:02.660Z,30.00
2018-07-28T08:09:30.728Z,29.70
2018-07-28T08:11:58.799Z,29.50
2018-07-28T08:14:26.860Z,29.30
2018-07-28T08:16:54.935Z,29.20
2018-07-28T08:19:23.022Z,29.20
2018-07-28T08:21:51.184Z,29.20
2018-07-28T08:24:19.240Z,29.30
2018-07-28T08:26:48.078Z,29.50
2018-07-28T08:29:16.059Z,29.60
2018-07-28T08:31:44.161Z,29.60
2018-07-28T08:34:13.552Z,29.60
2018-07-28T08:36:41.584Z,29.60
2018-07-28T08:39:11.761Z,29.60
2018-07-28T08:41:40.298Z,29.60
2018-07-28T08:44:08.379Z,29.50
2018-07-28T08:46:36.491Z,29.50
2018-07-28T08:49:04.633Z,29.60
2018-07-28T08:51:32.667Z,29.50
2018-07-28T08:54:00.735Z,29.00
2018-07-28T08:56:28.892Z,28.80
2018-07-28T08:58:56.944Z,28.70
2018-07-28T09:01:25.499Z,28.70
2018-07-28T09:03:53.751Z,28.70
2018-07-28T09:06:22.057Z,28.80
2018-07-28T09:08:50.116Z,28.90
2018-07-28T09:11:18.176Z,29.00
2018-07-28T09:13:46.408Z,29.20
2018-07-28T09:16:14.488Z,29.40
2018-07-28T09:18:42.526Z,29.60
2018-07-28T09:21:10.642Z,29.80
2018-07-28T09:23:39.010Z,30.10
2018-07-28T09:26:07.046Z,30.20
2018-07-28T09:28:35.153Z,30.70
2018-07-28T09:31:03.215Z,30.90
2018-07-28T09:33:31.696Z,31.10
2018-07-28T09:35:59.892Z,31.40
2018-07-28T09:38:27.979Z,31.50
2018-07-28T09:40:56.033Z,31.60
2018-07-28T09:43:24.684Z,31.50
2018-07-28T09:45:52.727Z,31.50
2018-07-28T09:48:20.791Z,31.60
2018-07-28T09:50:48.897Z,32.00
2018-07-28T09:53:17.032Z,32.20
2018-07-28T09:55:45.113Z,32.10
2018-07-28T09:58:13.668Z,32.20
2018-07-28T10:00:47.132Z,32.40
2018-07-28T10:03:15.180Z,32.60
2018-07-28T10:05:43.230Z,32.50
2018-07-28T10:08:11.276Z,32.70
2018-07-28T10:10:39.351Z,33.00
2018-07-28T10:13:07.472Z,33.50
2018-07-28T10:15:35.582Z,34.10
2018-07-28T10:18:03.641Z,34.50
2018-07-28T10:20:31.705Z,34.90
2018-07-28T10:22:59.830Z,35.20
2018-07-28T10:25:27.818Z,35.50
2018-07-28T10:27:55.943Z,35.60
2018-07-28T10:30:23.989Z,35.30
2018-07-28T10:32:52.016Z,35.00
2018-07-28T10:35:20.056Z,34.70
2018-07-28T10:37:48.121Z,34.50
2018-07-28T10:40:16.164Z,34.30
2018-07-28T10:42:44.232Z,34.20
2018-07-28T10:45:12.276Z,34.30
2018-07-28T10:47:40.349Z,34.20
2018-07-28T10:50:08.425Z,34.40
2018-07-28T10:52:36.520Z,34.50
2018-07-28T10:55:04.567Z,34.50
2018-07-28T10:57:32.684Z,34.40
2018-07-28T11:00:00.747Z,34.40
2018-07-28T11:02:28.796Z,35.00
2018-07-28T11:04:56.876Z,35.60
2018-07-28T11:07:24.924Z,36.20
2018-07-28T11:09:53.012Z,35.90
2018-07-28T11:12:21.066Z,35.70
2018-07-28T11:14:49.100Z,35.60
2018-07-28T11:17:17.148Z,35.50
2018-07-28T11:19:45.229Z,35.50
2018-07-28T11:22:13.297Z,35.40
2018-07-28T11:24:41.418Z,35.40
2018-07-28T11:27:10.268Z,35.60
2018-07-28T11:29:38.309Z,35.80
2018-07-28T11:32:17.896Z,35.80
2018-07-28T11:34:57.357Z,35.80
2018-07-28T11:37:37.032Z,35.60
2018-07-28T11:43:59.586Z,35.80
2018-07-28T11:46:27.641Z,36.20
2018-07-28T11:48:55.693Z,36.60
2018-07-28T11:51:23.829Z,36.60
2018-07-28T11:53:51.793Z,36.60
2018-07-28T11:56:19.831Z,36.70
2018-07-28T11:58:47.891Z,37.00
2018-07-28T12:01:15.925Z,37.30
2018-07-28T12:03:44.011Z,37.30
2018-07-28T12:06:12.052Z,37.40
2018-07-28T12:08:40.116Z,37.30
2018-07-28T12:11:08.164Z,36.60
2018-07-28T12:13:36.216Z,36.30
2018-07-28T12:16:04.337Z,35.70
2018-07-28T12:18:32.451Z,35.90
2018-07-28T12:21:00.501Z,36.00
2018-07-28T12:23:28.580Z,35.80
2018-07-28T12:25:56.650Z,35.80
2018-07-28T12:28:24.728Z,35.80
2018-07-28T12:30:52.792Z,35.70
2018-07-28T12:33:20.852Z,35.80
2018-07-28T12:35:48.956Z,36.00
2018-07-28T12:38:17.004Z,35.90
2018-07-28T12:40:45.072Z,35.60
2018-07-28T12:43:13.128Z,35.30
2018-07-28T12:45:41.212Z,35.50
2018-07-28T12:48:09.280Z,35.70
2018-07-28T12:50:37.348Z,35.70
2018-07-28T12:53:05.453Z,35.40
2018-07-28T12:55:33.548Z,35.50
2018-07-28T12:58:01.590Z,35.00
2018-07-28T13:00:29.657Z,34.60
2018-07-28T13:02:57.716Z,34.70
2018-07-28T13:05:25.805Z,34.90
2018-07-28T13:07:53.958Z,35.10
2018-07-28T13:10:22.053Z,35.30
2018-07-28T13:12:50.169Z,35.50
2018-07-28T13:15:18.239Z,35.60
2018-07-28T13:17:46.341Z,35.60
2018-07-28T13:20:14.379Z,35.50
2018-07-28T13:22:42.441Z,35.40
2018-07-28T13:25:10.546Z,34.90
2018-07-28T13:27:38.636Z,34.70
2018-07-28T13:30:06.944Z,34.40
2018-07-28T13:32:34.996Z,34.20
2018-07-28T13:35:03.068Z,34.40
2018-07-28T13:37:31.124Z,34.50
2018-07-28T13:39:59.220Z,34.40
2018-07-28T13:42:27.255Z,34.10
2018-07-28T13:44:55.315Z,33.80
2018-07-28T13:47:23.373Z,33.30
2018-07-28T13:49:51.420Z,32.90
2018-07-28T13:52:19.629Z,32.70
2018-07-28T13:54:47.697Z,32.60
2018-07-28T13:57:15.756Z,32.40
2018-07-28T13:59:43.804Z,32.20
2018-07-28T14:02:11.903Z,32.10
2018-07-28T14:04:39.961Z,32.10
2018-07-28T14:07:08.069Z,32.30
2018-07-28T14:09:36.115Z,32.70
2018-07-28T14:12:04.176Z,33.10
2018-07-28T14:14:32.247Z,33.50
2018-07-28T14:17:00.276Z,33.70
2018-07-28T14:19:28.332Z,33.90
2018-07-28T14:21:56.365Z,34.00
2018-07-28T14:24:24.404Z,33.80
2018-07-28T14:26:52.464Z,33.70
2018-07-28T14:29:20.520Z,33.60
2018-07-28T14:31:48.760Z,33.50
2018-07-28T14:34:16.792Z,33.20
2018-07-28T14:36:44.850Z,33.00
2018-07-28T14:39:12.899Z,33.00
2018-07-28T14:41:40.954Z,33.10
2018-07-28T14:44:09.036Z,33.30
2018-07-28T14:46:37.096Z,33.40
2018-07-28T14:49:05.168Z,33.50
2018-07-28T14:51:33.216Z,33.60
2018-07-28T14:54:01.280Z,33.70
2018-07-28T14:56:29.331Z,33.90
2018-07-28T14:58:57.377Z,33.70
2018-07-28T15:01:25.792Z,33.50
2018-07-28T15:03:54.169Z,33.50
2018-07-28T15:06:22.228Z,33.40
2018-07-28T15:08:50.289Z,33.20
2018-07-28T15:11:18.394Z,33.20
2018-07-28T15:13:46.469Z,33.30
2018-07-28T15:16:14.500Z,33.10
2018-07-28T15:18:42.587Z,33.30
2018-07-28T15:21:10.673Z,33.50
2018-07-28T15:23:39.031Z,33.70
2018-07-28T15:26:07.096Z,33.80
2018-07-28T15:28:35.149Z,33.90
2018-07-28T15:31:03.300Z,34.00
2018-07-28T15:33:31.430Z,34.20
2018-07-28T15:35:59.478Z,34.40
2018-07-28T15:38:27.540Z,34.50
2018-07-28T15:40:55.651Z,34.70
2018-07-28T15:43:23.705Z,34.80
2018-07-28T15:45:51.796Z,35.00
2018-07-28T15:48:19.844Z,35.00
2018-07-28T15:53:15.736Z,34.80
2018-07-28T15:55:43.875Z,34.70
2018-07-28T15:58:12.088Z,34.70
2018-07-28T16:00:40.134Z,34.70
2018-07-28T16:03:08.198Z,34.60
2018-07-28T16:05:36.233Z,34.50
2018-07-28T16:08:04.320Z,34.50
2018-07-28T16:10:32.413Z,34.50
2018-07-28T16:13:00.493Z,34.50
2018-07-28T16:15:28.540Z,34.40
2018-07-28T16:17:56.600Z,34.30
2018-07-28T16:20:24.649Z,34.30
2018-07-28T16:22:52.760Z,34.20
2018-07-28T16:25:20.824Z,34.30
2018-07-28T16:27:48.928Z,34.10
2018-07-28T16:30:16.948Z,34.10
2018-07-28T16:32:45.005Z,34.00
2018-07-28T16:35:13.052Z,33.80
2018-07-28T16:37:41.104Z,33.70
2018-07-28T16:40:09.275Z,33.40
2018-07-28T16:42:37.288Z,33.20
2018-07-28T16:45:05.793Z,33.00
2018-07-28T16:47:33.844Z,32.70
2018-07-28T16:50:01.894Z,32.50
2018-07-28T16:52:29.953Z,32.20
2018-07-28T16:54:58.008Z,32.10
2018-07-28T16:57:26.061Z,31.90
2018-07-28T16:59:54.304Z,31.80
2018-07-28T17:02:22.702Z,31.80
2018-07-28T17:04:50.817Z,31.80
2018-07-28T17:07:19.226Z,31.70
2018-07-28T17:09:47.595Z,31.60
2018-07-28T17:12:15.700Z,31.50
2018-07-28T17:14:43.832Z,31.40
2018-07-28T17:17:11.888Z,31.20
2018-07-28T17:19:39.956Z,31.10
2018-07-28T17:22:08.013Z,30.90
2018-07-28T17:24:36.134Z,30.80
2018-07-28T17:27:04.207Z,30.70
2018-07-28T17:29:32.324Z,30.70
2018-07-28T17:32:00.403Z,30.60
2018-07-28T17:34:28.476Z,30.50
2018-07-28T17:36:56.539Z,30.40
2018-07-28T17:39:24.608Z,30.30
2018-07-28T17:41:52.668Z,30.20
2018-07-28T17:44:20.768Z,30.20
2018-07-28T17:46:48.900Z,30.10
2018-07-28T17:51:44.844Z,29.90
2018-07-28T17:54:13.012Z,29.90
2018-07-28T17:56:41.089Z,29.90
2018-07-28T17:59:09.164Z,29.90
2018-07-28T18:01:37.228Z,29.90
2018-07-28T18:04:05.344Z,29.90
2018-07-28T18:06:33.408Z,29.90
2018-07-28T18:09:01.652Z,29.80
2018-07-28T18:11:29.735Z,29.80
2018-07-28T18:13:58.025Z,29.80
2018-07-28T18:16:26.103Z,29.70
2018-07-28T18:18:54.252Z,29.70
2018-07-28T18:21:22.329Z,29.70
2018-07-28T18:23:50.484Z,29.60
2018-07-28T18:26:18.490Z,29.50
2018-07-28T18:28:46.560Z,29.40
2018-07-28T18:31:14.628Z,29.40
2018-07-28T18:33:42.740Z,29.20
2018-07-28T18:36:10.809Z,29.10
2018-07-28T18:38:38.888Z,29.00
2018-07-28T18:41:06.953Z,28.90
2018-07-28T18:43:35.052Z,28.90
2018-07-28T18:46:03.109Z,28.80
2018-07-28T18:48:31.212Z,28.80
2018-07-28T18:50:59.291Z,28.70
2018-07-28T18:53:27.391Z,28.50
2018-07-28T18:55:55.566Z,28.50
2018-07-28T18:58:23.636Z,28.30
2018-07-28T19:00:51.790Z,28.20
2018-07-28T19:03:19.866Z,28.10
2018-07-28T19:05:47.915Z,28.00
2018-07-28T19:08:16.000Z,27.90
2018-07-28T19:10:44.065Z,27.80
2018-07-28T19:13:17.613Z,27.70
2018-07-28T19:15:45.672Z,27.70
2018-07-28T19:18:18.994Z,27.60
2018-07-28T19:20:47.021Z,27.50
2018-07-28T19:23:20.756Z,27.50
2018-07-28T19:25:48.772Z,27.40
2018-07-28T19:29:23.099Z,27.40
2018-07-28T19:31:51.160Z,27.30
2018-07-28T19:34:19.214Z,27.20
2018-07-28T19:36:52.835Z,27.20
2018-07-28T19:39:20.879Z,27.10
2018-07-28T19:41:54.340Z,27.10
2018-07-28T19:44:22.392Z,26.90
2018-07-28T19:46:50.508Z,26.80
2018-07-28T19:49:18.556Z,26.70
2018-07-28T19:51:46.618Z,26.60
2018-07-28T19:54:14.716Z,26.60
2018-07-28T19:56:42.712Z,26.40
2018-07-28T19:59:10.776Z,26.30
2018-07-28T20:01:38.872Z,26.30
2018-07-28T20:04:06.931Z,26.20
2018-07-28T20:06:34.979Z,26.10
2018-07-28T20:09:04.010Z,26.00
2018-07-28T20:11:32.056Z,25.90
2018-07-28T20:14:00.139Z,25.90
2018-07-28T20:16:28.164Z,25.80
2018-07-28T20:18:56.236Z,25.70
2018-07-28T20:21:24.285Z,25.60
2018-07-28T20:23:52.380Z,25.50
2018-07-28T20:26:20.452Z,25.50
2018-07-28T20:28:48.520Z,25.40
2018-07-28T20:31:16.575Z,25.40
2018-07-28T20:33:44.644Z,25.30
2018-07-28T20:36:12.736Z,25.20
2018-07-28T20:38:40.837Z,25.20
2018-07-28T20:41:08.907Z,25.10
2018-07-28T20:43:36.971Z,25.00
2018-07-28T20:46:05.124Z,24.90
2018-07-28T20:48:33.189Z,24.80
2018-07-28T20:51:01.340Z,24.80
2018-07-28T20:53:29.361Z,24.70
2018-07-28T20:55:57.453Z,24.60
2018-07-28T20:58:25.611Z,24.50
2018-07-28T21:00:53.696Z,24.40
2018-07-28T21:03:21.873Z,24.30
2018-07-28T21:05:49.947Z,24.30
2018-07-28T21:08:18.008Z,24.20
2018-07-28T21:10:46.085Z,24.20
2018-07-28T21:13:14.216Z,24.10
2018-07-28T21:15:42.293Z,24.00
2018-07-28T21:18:10.385Z,24.00
2018-07-28T21:20:38.537Z,24.00
2018-07-28T21:23:06.592Z,23.90
2018-07-28T21:25:34.695Z,23.90
2018-07-28T21:28:02.792Z,23.80
2018-07-28T21:30:30.808Z,23.80
2018-07-28T21:32:58.877Z,23.80
2018-07-28T21:35:26.948Z,23.70
2018-07-28T21:37:55.024Z,23.70
2018-07-28T21:40:23.080Z,23.70
2018-07-28T21:42:51.186Z,23.70
2018-07-28T21:45:19.256Z,23.60
2018-07-28T21:47:47.316Z,23.60
2018-07-28T21:50:15.409Z,23.60
2018-07-28T21:52:43.472Z,23.40
2018-07-28T21:55:11.544Z,23.40
2018-07-28T21:57:39.612Z,23.30
2018-07-28T22:02:36.036Z,23.20
2018-07-28T22:05:04.239Z,23.20
2018-07-28T22:07:32.244Z,23.10
2018-07-28T22:10:00.312Z,23.00
2018-07-28T22:12:28.572Z,23.00
2018-07-28T22:14:56.640Z,22.90
2018-07-28T22:17:24.700Z,22.80
2018-07-28T22:19:52.756Z,22.80
2018-07-28T22:22:20.813Z,22.70
2018-07-28T22:24:48.880Z,22.70
2018-07-28T22:27:16.948Z,22.60
2018-07-28T22:29:45.021Z,22.50
2018-07-28T22:32:13.084Z,22.50
2018-07-28T22:34:41.173Z,22.40
2018-07-28T22:37:09.233Z,22.40
2018-07-28T22:39:37.289Z,22.30
2018-07-28T22:42:05.360Z,22.30
2018-07-28T22:44:33.422Z,22.20
2018-07-28T22:47:01.497Z,22.10
2018-07-28T22:49:29.565Z,22.10
2018-07-28T22:51:57.634Z,21.90
2018-07-28T22:54:25.705Z,21.90
2018-07-28T22:56:53.779Z,21.80
2018-07-28T22:59:21.846Z,21.70
2018-07-28T23:01:49.924Z,21.70
2018-07-28T23:04:17.996Z,21.60
2018-07-28T23:06:46.068Z,21.60
2018-07-28T23:09:14.130Z,21.50
2018-07-28T23:11:42.252Z,21.50
2018-07-28T23:14:10.682Z,21.40
2018-07-28T23:16:38.768Z,21.40
2018-07-28T23:19:06.849Z,21.30
2018-07-28T23:21:34.932Z,21.30
2018-07-28T23:24:02.984Z,21.20
2018-07-28T23:26:31.020Z,21.20
2018-07-28T23:28:59.060Z,21.10
2018-07-28T23:31:27.124Z,21.10
2018-07-28T23:33:55.164Z,21.10
2018-07-28T23:36:23.233Z,21.10
2018-07-28T23:38:51.264Z,21.10
2018-07-28T23:41:19.350Z,21.00
2018-07-28T23:43:47.397Z,21.00
2018-07-28T23:46:15.439Z,20.90
2018-07-28T23:48:43.476Z,20.90
2018-07-28T23:51:11.528Z,20.90
2018-07-28T23:53:39.589Z,20.90
2018-07-28T23:56:07.640Z,20.80
2018-07-28T23:58:35.685Z,20.70
